sensor_id;sensor_type;location;lat;lon;timestamp;P1;durP1;ratioP1;P2;durP2;ratioP2
67140;SDS011;54058;52.010;5.546;2023-01-04T00:01:41;6.13;;;1.70;;
67140;SDS011;54058;52.010;5.546;2023-01-04T00:04:08;5.78;;;1.48;;
67140;SDS011;54058;52.010;5.546;2023-01-04T00:06:33;5.93;;;2.00;;
67140;SDS011;54058;52.010;5.546;2023-01-04T00:08:59;3.97;;;1.73;;
67140;SDS011;54058;52.010;5.546;2023-01-04T00:11:25;6.95;;;1.75;;
67140;SDS011;54058;52.010;5.546;2023-01-04T00:13:51;8.55;;;1.63;;
67140;SDS011;54058;52.010;5.546;2023-01-04T00:16:20;5.38;;;1.98;;
67140;SDS011;54058;52.010;5.546;2023-01-04T00:18:47;4.40;;;1.60;;
67140;SDS011;54058;52.010;5.546;2023-01-04T00:21:15;4.28;;;1.70;;
67140;SDS011;54058;52.010;5.546;2023-01-04T00:23:43;4.75;;;1.58;;
67140;SDS011;54058;52.010;5.546;2023-01-04T00:26:18;5.65;;;1.77;;
67140;SDS011;54058;52.010;5.546;2023-01-04T00:31:17;5.93;;;1.90;;
67140;SDS011;54058;52.010;5.546;2023-01-04T00:33:43;7.47;;;1.85;;
67140;SDS011;54058;52.010;5.546;2023-01-04T00:36:10;6.25;;;2.70;;
67140;SDS011;54058;52.010;5.546;2023-01-04T00:38:37;8.02;;;1.73;;
67140;SDS011;54058;52.010;5.546;2023-01-04T00:41:03;5.57;;;1.45;;
67140;SDS011;54058;52.010;5.546;2023-01-04T00:43:31;6.32;;;1.80;;
67140;SDS011;54058;52.010;5.546;2023-01-04T00:45:57;9.00;;;1.60;;
67140;SDS011;54058;52.010;5.546;2023-01-04T00:48:22;7.40;;;1.98;;
67140;SDS011;54058;52.010;5.546;2023-01-04T00:50:48;6.50;;;1.80;;
67140;SDS011;54058;52.010;5.546;2023-01-04T00:53:15;6.05;;;1.92;;
67140;SDS011;54058;52.010;5.546;2023-01-04T00:55:41;4.30;;;1.50;;
67140;SDS011;54058;52.010;5.546;2023-01-04T00:58:07;5.47;;;1.52;;
67140;SDS011;54058;52.010;5.546;2023-01-04T01:00:33;3.28;;;1.30;;
67140;SDS011;54058;52.010;5.546;2023-01-04T01:02:59;4.88;;;1.25;;
67140;SDS011;54058;52.010;5.546;2023-01-04T01:05:25;2.93;;;1.53;;
67140;SDS011;54058;52.010;5.546;2023-01-04T01:07:51;4.40;;;1.55;;
67140;SDS011;54058;52.010;5.546;2023-01-04T01:10:16;5.63;;;1.40;;
67140;SDS011;54058;52.010;5.546;2023-01-04T01:12:42;2.33;;;1.30;;
67140;SDS011;54058;52.010;5.546;2023-01-04T01:15:08;3.97;;;1.55;;
67140;SDS011;54058;52.010;5.546;2023-01-04T01:17:34;4.55;;;1.50;;
67140;SDS011;54058;52.010;5.546;2023-01-04T01:20:00;4.47;;;1.55;;
67140;SDS011;54058;52.010;5.546;2023-01-04T01:24:54;2.42;;;1.52;;
67140;SDS011;54058;52.010;5.546;2023-01-04T01:27:19;2.03;;;1.50;;
67140;SDS011;54058;52.010;5.546;2023-01-04T01:29:45;2.70;;;1.33;;
67140;SDS011;54058;52.010;5.546;2023-01-04T01:32:10;5.30;;;1.55;;
67140;SDS011;54058;52.010;5.546;2023-01-04T01:34:36;5.95;;;1.73;;
67140;SDS011;54058;52.010;5.546;2023-01-04T01:37:02;3.30;;;1.30;;
67140;SDS011;54058;52.010;5.546;2023-01-04T01:39:27;4.68;;;1.40;;
67140;SDS011;54058;52.010;5.546;2023-01-04T01:41:53;4.63;;;1.35;;
67140;SDS011;54058;52.010;5.546;2023-01-04T01:47:16;1.35;;;1.17;;
67140;SDS011;54058;52.010;5.546;2023-01-04T01:49:45;2.78;;;1.20;;
67140;SDS011;54058;52.010;5.546;2023-01-04T01:52:15;3.83;;;1.40;;
67140;SDS011;54058;52.010;5.546;2023-01-04T01:54:46;2.13;;;1.10;;
67140;SDS011;54058;52.010;5.546;2023-01-04T01:57:17;2.75;;;1.33;;
67140;SDS011;54058;52.010;5.546;2023-01-04T01:59:46;1.77;;;1.02;;
67140;SDS011;54058;52.010;5.546;2023-01-04T02:02:17;3.20;;;1.00;;
67140;SDS011;54058;52.010;5.546;2023-01-04T02:04:45;1.92;;;0.90;;
67140;SDS011;54058;52.010;5.546;2023-01-04T02:07:13;3.22;;;1.13;;
67140;SDS011;54058;52.010;5.546;2023-01-04T02:09:44;1.25;;;1.05;;
67140;SDS011;54058;52.010;5.546;2023-01-04T02:14:38;1.73;;;1.00;;
67140;SDS011;54058;52.010;5.546;2023-01-04T02:17:07;2.20;;;0.90;;
67140;SDS011;54058;52.010;5.546;2023-01-04T02:20:18;4.13;;;1.00;;
67140;SDS011;54058;52.010;5.546;2023-01-04T02:23:19;1.75;;;0.90;;
67140;SDS011;54058;52.010;5.546;2023-01-04T02:31:32;1.50;;;1.10;;
67140;SDS011;54058;52.010;5.546;2023-01-04T02:37:09;1.98;;;1.30;;
67140;SDS011;54058;52.010;5.546;2023-01-04T02:40:01;3.50;;;1.40;;
67140;SDS011;54058;52.010;5.546;2023-01-04T02:45:56;1.40;;;1.30;;
67140;SDS011;54058;52.010;5.546;2023-01-04T02:48:33;1.35;;;1.30;;
67140;SDS011;54058;52.010;5.546;2023-01-04T02:51:33;3.13;;;1.30;;
67140;SDS011;54058;52.010;5.546;2023-01-04T02:54:05;1.98;;;1.55;;
67140;SDS011;54058;52.010;5.546;2023-01-04T03:05:41;2.38;;;1.50;;
67140;SDS011;54058;52.010;5.546;2023-01-04T03:08:53;1.83;;;1.17;;
67140;SDS011;54058;52.010;5.546;2023-01-04T03:11:26;1.00;;;1.00;;
67140;SDS011;54058;52.010;5.546;2023-01-04T03:14:44;3.53;;;1.40;;
67140;SDS011;54058;52.010;5.546;2023-01-04T03:17:15;1.85;;;1.73;;
67140;SDS011;54058;52.010;5.546;2023-01-04T03:19:44;1.83;;;1.38;;
67140;SDS011;54058;52.010;5.546;2023-01-04T03:22:15;1.90;;;1.60;;
67140;SDS011;54058;52.010;5.546;2023-01-04T03:25:03;2.30;;;1.30;;
67140;SDS011;54058;52.010;5.546;2023-01-04T03:27:50;2.65;;;1.40;;
67140;SDS011;54058;52.010;5.546;2023-01-04T03:30:40;2.25;;;1.30;;
67140;SDS011;54058;52.010;5.546;2023-01-04T03:33:43;1.33;;;1.23;;
67140;SDS011;54058;52.010;5.546;2023-01-04T03:36:35;1.20;;;1.13;;
67140;SDS011;54058;52.010;5.546;2023-01-04T03:39:15;2.13;;;1.30;;
67140;SDS011;54058;52.010;5.546;2023-01-04T03:42:17;6.03;;;1.70;;
67140;SDS011;54058;52.010;5.546;2023-01-04T03:45:17;2.28;;;1.50;;
67140;SDS011;54058;52.010;5.546;2023-01-04T03:48:16;4.28;;;1.60;;
67140;SDS011;54058;52.010;5.546;2023-01-04T03:51:16;1.60;;;1.50;;
67140;SDS011;54058;52.010;5.546;2023-01-04T03:56:24;2.20;;;1.30;;
67140;SDS011;54058;52.010;5.546;2023-01-04T03:58:52;1.33;;;1.23;;
67140;SDS011;54058;52.010;5.546;2023-01-04T04:01:19;3.80;;;2.33;;
67140;SDS011;54058;52.010;5.546;2023-01-04T04:03:47;2.05;;;1.50;;
67140;SDS011;54058;52.010;5.546;2023-01-04T04:06:31;2.17;;;1.70;;
67140;SDS011;54058;52.010;5.546;2023-01-04T04:09:15;1.45;;;1.35;;
67140;SDS011;54058;52.010;5.546;2023-01-04T04:11:40;2.22;;;1.80;;
67140;SDS011;54058;52.010;5.546;2023-01-04T04:14:06;2.50;;;1.67;;
67140;SDS011;54058;52.010;5.546;2023-01-04T04:16:35;1.73;;;1.40;;
67140;SDS011;54058;52.010;5.546;2023-01-04T04:19:01;2.35;;;1.50;;
67140;SDS011;54058;52.010;5.546;2023-01-04T04:21:26;3.58;;;1.67;;
67140;SDS011;54058;52.010;5.546;2023-01-04T04:23:53;3.47;;;1.50;;
67140;SDS011;54058;52.010;5.546;2023-01-04T04:26:20;3.30;;;1.60;;
67140;SDS011;54058;52.010;5.546;2023-01-04T04:28:45;3.58;;;1.65;;
67140;SDS011;54058;52.010;5.546;2023-01-04T04:31:11;1.73;;;1.63;;
67140;SDS011;54058;52.010;5.546;2023-01-04T04:33:37;5.30;;;1.75;;
67140;SDS011;54058;52.010;5.546;2023-01-04T04:36:04;6.18;;;1.50;;
67140;SDS011;54058;52.010;5.546;2023-01-04T04:38:30;2.20;;;1.60;;
67140;SDS011;54058;52.010;5.546;2023-01-04T04:40:56;2.35;;;1.80;;
67140;SDS011;54058;52.010;5.546;2023-01-04T04:43:39;3.28;;;1.40;;
67140;SDS011;54058;52.010;5.546;2023-01-04T04:46:05;2.08;;;1.65;;
67140;SDS011;54058;52.010;5.546;2023-01-04T04:48:31;1.45;;;1.35;;
67140;SDS011;54058;52.010;5.546;2023-01-04T04:50:56;2.35;;;1.60;;
67140;SDS011;54058;52.010;5.546;2023-01-04T04:53:22;1.60;;;1.50;;
67140;SDS011;54058;52.010;5.546;2023-01-04T04:55:51;2.25;;;1.60;;
67140;SDS011;54058;52.010;5.546;2023-01-04T04:58:17;4.07;;;1.52;;
67140;SDS011;54058;52.010;5.546;2023-01-04T05:00:44;2.97;;;1.80;;
67140;SDS011;54058;52.010;5.546;2023-01-04T05:03:09;1.83;;;1.65;;
67140;SDS011;54058;52.010;5.546;2023-01-04T05:05:35;1.98;;;1.83;;
67140;SDS011;54058;52.010;5.546;2023-01-04T05:08:00;1.95;;;1.63;;
67140;SDS011;54058;52.010;5.546;2023-01-04T05:10:26;3.20;;;1.65;;
67140;SDS011;54058;52.010;5.546;2023-01-04T05:12:51;5.50;;;1.95;;
67140;SDS011;54058;52.010;5.546;2023-01-04T05:15:26;4.20;;;2.10;;
67140;SDS011;54058;52.010;5.546;2023-01-04T05:17:55;2.35;;;1.92;;
67140;SDS011;54058;52.010;5.546;2023-01-04T05:20:21;5.85;;;1.90;;
67140;SDS011;54058;52.010;5.546;2023-01-04T05:22:46;3.10;;;2.20;;
67140;SDS011;54058;52.010;5.546;2023-01-04T05:25:12;2.20;;;2.00;;
67140;SDS011;54058;52.010;5.546;2023-01-04T05:27:38;2.85;;;2.17;;
67140;SDS011;54058;52.010;5.546;2023-01-04T05:30:04;3.08;;;2.65;;
67140;SDS011;54058;52.010;5.546;2023-01-04T05:32:49;3.88;;;2.25;;
67140;SDS011;54058;52.010;5.546;2023-01-04T05:35:14;1.98;;;1.88;;
67140;SDS011;54058;52.010;5.546;2023-01-04T05:37:40;3.85;;;2.30;;
67140;SDS011;54058;52.010;5.546;2023-01-04T05:40:06;3.25;;;2.10;;
67140;SDS011;54058;52.010;5.546;2023-01-04T05:42:32;2.83;;;2.30;;
67140;SDS011;54058;52.010;5.546;2023-01-04T05:44:58;2.25;;;2.05;;
67140;SDS011;54058;52.010;5.546;2023-01-04T05:47:24;3.75;;;2.17;;
67140;SDS011;54058;52.010;5.546;2023-01-04T05:49:51;2.10;;;2.00;;
67140;SDS011;54058;52.010;5.546;2023-01-04T05:52:16;3.25;;;2.15;;
67140;SDS011;54058;52.010;5.546;2023-01-04T05:54:42;3.38;;;2.50;;
67140;SDS011;54058;52.010;5.546;2023-01-04T05:57:08;4.53;;;2.20;;
67140;SDS011;54058;52.010;5.546;2023-01-04T05:59:34;4.70;;;2.50;;
67140;SDS011;54058;52.010;5.546;2023-01-04T06:02:00;4.63;;;2.40;;
67140;SDS011;54058;52.010;5.546;2023-01-04T06:04:26;2.78;;;2.50;;
67140;SDS011;54058;52.010;5.546;2023-01-04T06:06:52;2.40;;;2.00;;
67140;SDS011;54058;52.010;5.546;2023-01-04T06:09:18;3.15;;;1.92;;
67140;SDS011;54058;52.010;5.546;2023-01-04T06:11:43;9.00;;;2.30;;
67140;SDS011;54058;52.010;5.546;2023-01-04T06:14:09;2.47;;;2.05;;
67140;SDS011;54058;52.010;5.546;2023-01-04T06:16:34;5.20;;;2.05;;
67140;SDS011;54058;52.010;5.546;2023-01-04T06:19:00;4.50;;;2.42;;
67140;SDS011;54058;52.010;5.546;2023-01-04T06:21:26;4.25;;;1.80;;
67140;SDS011;54058;52.010;5.546;2023-01-04T06:23:52;4.93;;;2.00;;
67140;SDS011;54058;52.010;5.546;2023-01-04T06:26:18;2.78;;;2.20;;
67140;SDS011;54058;52.010;5.546;2023-01-04T06:28:45;5.63;;;1.75;;
67140;SDS011;54058;52.010;5.546;2023-01-04T06:31:11;3.13;;;2.15;;
67140;SDS011;54058;52.010;5.546;2023-01-04T06:33:37;4.93;;;2.10;;
67140;SDS011;54058;52.010;5.546;2023-01-04T06:36:03;4.97;;;2.17;;
67140;SDS011;54058;52.010;5.546;2023-01-04T06:38:30;3.75;;;2.30;;
67140;SDS011;54058;52.010;5.546;2023-01-04T06:40:57;2.95;;;2.50;;
67140;SDS011;54058;52.010;5.546;2023-01-04T06:43:23;3.45;;;2.22;;
67140;SDS011;54058;52.010;5.546;2023-01-04T06:45:49;2.50;;;2.30;;
67140;SDS011;54058;52.010;5.546;2023-01-04T06:48:14;2.50;;;2.30;;
67140;SDS011;54058;52.010;5.546;2023-01-04T06:50:40;4.53;;;2.78;;
67140;SDS011;54058;52.010;5.546;2023-01-04T06:53:07;3.50;;;2.70;;
67140;SDS011;54058;52.010;5.546;2023-01-04T06:55:32;4.57;;;2.60;;
67140;SDS011;54058;52.010;5.546;2023-01-04T06:57:58;3.28;;;2.60;;
67140;SDS011;54058;52.010;5.546;2023-01-04T07:00:24;4.05;;;2.55;;
67140;SDS011;54058;52.010;5.546;2023-01-04T07:02:51;6.03;;;3.00;;
67140;SDS011;54058;52.010;5.546;2023-01-04T07:05:17;5.45;;;2.67;;
67140;SDS011;54058;52.010;5.546;2023-01-04T07:07:42;2.80;;;2.30;;
67140;SDS011;54058;52.010;5.546;2023-01-04T07:10:08;4.60;;;2.50;;
67140;SDS011;54058;52.010;5.546;2023-01-04T07:12:34;3.60;;;2.40;;
67140;SDS011;54058;52.010;5.546;2023-01-04T07:14:59;4.35;;;2.70;;
67140;SDS011;54058;52.010;5.546;2023-01-04T07:17:25;3.97;;;3.08;;
67140;SDS011;54058;52.010;5.546;2023-01-04T07:19:51;5.15;;;3.10;;
67140;SDS011;54058;52.010;5.546;2023-01-04T07:22:17;5.93;;;2.47;;
67140;SDS011;54058;52.010;5.546;2023-01-04T07:24:42;6.80;;;2.70;;
67140;SDS011;54058;52.010;5.546;2023-01-04T07:27:08;6.95;;;2.78;;
67140;SDS011;54058;52.010;5.546;2023-01-04T07:29:34;9.85;;;2.67;;
67140;SDS011;54058;52.010;5.546;2023-01-04T07:32:00;5.97;;;2.10;;
67140;SDS011;54058;52.010;5.546;2023-01-04T07:34:26;5.72;;;2.35;;
67140;SDS011;54058;52.010;5.546;2023-01-04T07:36:52;3.15;;;2.13;;
67140;SDS011;54058;52.010;5.546;2023-01-04T07:39:18;4.35;;;2.45;;
67140;SDS011;54058;52.010;5.546;2023-01-04T07:41:44;6.88;;;3.35;;
67140;SDS011;54058;52.010;5.546;2023-01-04T07:44:10;5.25;;;2.20;;
67140;SDS011;54058;52.010;5.546;2023-01-04T07:46:37;5.30;;;2.60;;
67140;SDS011;54058;52.010;5.546;2023-01-04T07:49:03;4.93;;;2.22;;
67140;SDS011;54058;52.010;5.546;2023-01-04T07:51:30;6.45;;;2.10;;
67140;SDS011;54058;52.010;5.546;2023-01-04T07:53:56;3.10;;;1.90;;
67140;SDS011;54058;52.010;5.546;2023-01-04T07:56:21;5.78;;;2.05;;
67140;SDS011;54058;52.010;5.546;2023-01-04T07:58:47;10.23;;;2.17;;
67140;SDS011;54058;52.010;5.546;2023-01-04T08:01:14;7.93;;;2.28;;
67140;SDS011;54058;52.010;5.546;2023-01-04T08:03:41;6.82;;;2.28;;
67140;SDS011;54058;52.010;5.546;2023-01-04T08:08:35;7.57;;;1.73;;
67140;SDS011;54058;52.010;5.546;2023-01-04T08:11:05;3.58;;;1.70;;
67140;SDS011;54058;52.010;5.546;2023-01-04T08:13:32;5.10;;;2.00;;
67140;SDS011;54058;52.010;5.546;2023-01-04T08:15:58;6.63;;;2.05;;
67140;SDS011;54058;52.010;5.546;2023-01-04T08:18:24;4.55;;;2.38;;
67140;SDS011;54058;52.010;5.546;2023-01-04T08:20:59;3.88;;;2.10;;
67140;SDS011;54058;52.010;5.546;2023-01-04T08:23:33;3.90;;;1.92;;
67140;SDS011;54058;52.010;5.546;2023-01-04T08:26:00;3.70;;;1.95;;
67140;SDS011;54058;52.010;5.546;2023-01-04T08:28:30;5.65;;;2.03;;
67140;SDS011;54058;52.010;5.546;2023-01-04T08:30:56;9.20;;;2.15;;
67140;SDS011;54058;52.010;5.546;2023-01-04T08:33:22;4.35;;;1.85;;
67140;SDS011;54058;52.010;5.546;2023-01-04T08:35:48;6.78;;;2.10;;
67140;SDS011;54058;52.010;5.546;2023-01-04T08:38:14;3.08;;;2.03;;
67140;SDS011;54058;52.010;5.546;2023-01-04T08:40:40;5.93;;;2.08;;
67140;SDS011;54058;52.010;5.546;2023-01-04T08:43:05;4.13;;;1.90;;
67140;SDS011;54058;52.010;5.546;2023-01-04T08:45:31;3.58;;;2.00;;
67140;SDS011;54058;52.010;5.546;2023-01-04T08:47:57;2.03;;;1.70;;
67140;SDS011;54058;52.010;5.546;2023-01-04T08:50:22;2.72;;;1.80;;
67140;SDS011;54058;52.010;5.546;2023-01-04T08:52:48;3.85;;;2.00;;
67140;SDS011;54058;52.010;5.546;2023-01-04T08:55:13;4.43;;;2.10;;
67140;SDS011;54058;52.010;5.546;2023-01-04T08:57:40;2.03;;;1.92;;
67140;SDS011;54058;52.010;5.546;2023-01-04T09:00:06;3.55;;;2.20;;
67140;SDS011;54058;52.010;5.546;2023-01-04T09:02:33;2.33;;;2.05;;
67140;SDS011;54058;52.010;5.546;2023-01-04T09:04:59;3.42;;;2.25;;
67140;SDS011;54058;52.010;5.546;2023-01-04T09:07:28;4.63;;;2.28;;
67140;SDS011;54058;52.010;5.546;2023-01-04T09:10:02;3.00;;;2.35;;
67140;SDS011;54058;52.010;5.546;2023-01-04T09:12:29;5.38;;;2.40;;
67140;SDS011;54058;52.010;5.546;2023-01-04T09:14:54;5.88;;;2.30;;
67140;SDS011;54058;52.010;5.546;2023-01-04T09:17:20;5.68;;;2.20;;
67140;SDS011;54058;52.010;5.546;2023-01-04T09:19:46;3.60;;;2.33;;
67140;SDS011;54058;52.010;5.546;2023-01-04T09:22:12;5.95;;;2.97;;
67140;SDS011;54058;52.010;5.546;2023-01-04T09:24:38;4.03;;;2.42;;
67140;SDS011;54058;52.010;5.546;2023-01-04T09:27:03;3.28;;;2.45;;
67140;SDS011;54058;52.010;5.546;2023-01-04T09:29:29;4.07;;;2.53;;
67140;SDS011;54058;52.010;5.546;2023-01-04T09:31:54;3.85;;;2.50;;
67140;SDS011;54058;52.010;5.546;2023-01-04T09:34:20;7.28;;;2.90;;
67140;SDS011;54058;52.010;5.546;2023-01-04T09:36:46;4.10;;;2.60;;
67140;SDS011;54058;52.010;5.546;2023-01-04T09:39:13;6.75;;;3.00;;
67140;SDS011;54058;52.010;5.546;2023-01-04T09:41:58;7.53;;;2.95;;
67140;SDS011;54058;52.010;5.546;2023-01-04T09:47:03;5.35;;;3.45;;
67140;SDS011;54058;52.010;5.546;2023-01-04T09:54:56;7.60;;;2.80;;
67140;SDS011;54058;52.010;5.546;2023-01-04T09:57:23;5.13;;;2.58;;
67140;SDS011;54058;52.010;5.546;2023-01-04T09:59:56;6.07;;;2.78;;
67140;SDS011;54058;52.010;5.546;2023-01-04T10:02:38;5.05;;;2.42;;
67140;SDS011;54058;52.010;5.546;2023-01-04T10:05:18;5.40;;;2.80;;
67140;SDS011;54058;52.010;5.546;2023-01-04T10:07:47;4.97;;;2.20;;
67140;SDS011;54058;52.010;5.546;2023-01-04T10:10:13;3.00;;;2.70;;
67140;SDS011;54058;52.010;5.546;2023-01-04T10:12:48;3.97;;;2.22;;
67140;SDS011;54058;52.010;5.546;2023-01-04T10:15:40;4.15;;;2.30;;
67140;SDS011;54058;52.010;5.546;2023-01-04T10:20:53;6.45;;;2.55;;
67140;SDS011;54058;52.010;5.546;2023-01-04T10:26:23;4.43;;;2.22;;
67140;SDS011;54058;52.010;5.546;2023-01-04T10:32:00;5.55;;;2.10;;
67140;SDS011;54058;52.010;5.546;2023-01-04T10:34:36;4.07;;;2.00;;
67140;SDS011;54058;52.010;5.546;2023-01-04T10:37:16;4.82;;;1.85;;
67140;SDS011;54058;52.010;5.546;2023-01-04T10:39:46;2.92;;;2.20;;
67140;SDS011;54058;52.010;5.546;2023-01-04T10:42:22;2.90;;;2.05;;
67140;SDS011;54058;52.010;5.546;2023-01-04T10:45:02;4.13;;;2.10;;
67140;SDS011;54058;52.010;5.546;2023-01-04T10:50:07;2.85;;;1.80;;
67140;SDS011;54058;52.010;5.546;2023-01-04T10:55:40;2.28;;;1.52;;
67140;SDS011;54058;52.010;5.546;2023-01-04T11:01:03;4.05;;;2.05;;
67140;SDS011;54058;52.010;5.546;2023-01-04T11:03:37;4.20;;;2.20;;
67140;SDS011;54058;52.010;5.546;2023-01-04T11:06:11;3.25;;;1.77;;
67140;SDS011;54058;52.010;5.546;2023-01-04T11:08:46;3.47;;;1.85;;
67140;SDS011;54058;52.010;5.546;2023-01-04T11:11:23;2.58;;;2.20;;
67140;SDS011;54058;52.010;5.546;2023-01-04T11:13:53;2.45;;;1.88;;
67140;SDS011;54058;52.010;5.546;2023-01-04T11:16:19;1.88;;;1.77;;
67140;SDS011;54058;52.010;5.546;2023-01-04T11:18:45;3.45;;;2.10;;
67140;SDS011;54058;52.010;5.546;2023-01-04T11:21:14;3.47;;;1.70;;
67140;SDS011;54058;52.010;5.546;2023-01-04T11:23:43;3.00;;;2.00;;
67140;SDS011;54058;52.010;5.546;2023-01-04T11:26:17;3.83;;;1.65;;
67140;SDS011;54058;52.010;5.546;2023-01-04T11:28:50;3.13;;;1.83;;
67140;SDS011;54058;52.010;5.546;2023-01-04T11:31:43;2.08;;;1.83;;
67140;SDS011;54058;52.010;5.546;2023-01-04T11:34:13;1.85;;;1.73;;
67140;SDS011;54058;52.010;5.546;2023-01-04T11:36:39;3.47;;;1.90;;
67140;SDS011;54058;52.010;5.546;2023-01-04T11:39:17;4.70;;;1.90;;
67140;SDS011;54058;52.010;5.546;2023-01-04T11:42:01;4.47;;;1.80;;
67140;SDS011;54058;52.010;5.546;2023-01-04T11:44:29;2.30;;;1.60;;
67140;SDS011;54058;52.010;5.546;2023-01-04T11:47:16;2.28;;;1.60;;
67140;SDS011;54058;52.010;5.546;2023-01-04T11:49:44;3.53;;;1.48;;
67140;SDS011;54058;52.010;5.546;2023-01-04T11:52:32;1.70;;;1.52;;
67140;SDS011;54058;52.010;5.546;2023-01-04T11:55:14;2.00;;;1.40;;
67140;SDS011;54058;52.010;5.546;2023-01-04T11:58:06;3.30;;;1.38;;
67140;SDS011;54058;52.010;5.546;2023-01-04T12:00:32;3.08;;;1.38;;
67140;SDS011;54058;52.010;5.546;2023-01-04T12:03:14;1.60;;;1.30;;
67140;SDS011;54058;52.010;5.546;2023-01-04T12:05:42;2.35;;;1.40;;
67140;SDS011;54058;52.010;5.546;2023-01-04T12:08:12;3.30;;;1.33;;
67140;SDS011;54058;52.010;5.546;2023-01-04T12:10:47;2.28;;;1.35;;
67140;SDS011;54058;52.010;5.546;2023-01-04T12:13:13;5.80;;;1.60;;
67140;SDS011;54058;52.010;5.546;2023-01-04T12:18:21;4.03;;;1.80;;
67140;SDS011;54058;52.010;5.546;2023-01-04T12:20:55;4.13;;;1.88;;
67140;SDS011;54058;52.010;5.546;2023-01-04T12:25:50;3.20;;;1.50;;
67140;SDS011;54058;52.010;5.546;2023-01-04T12:28:33;6.65;;;1.77;;
67140;SDS011;54058;52.010;5.546;2023-01-04T12:36:14;4.57;;;1.98;;
67140;SDS011;54058;52.010;5.546;2023-01-04T12:41:20;3.00;;;1.80;;
67140;SDS011;54058;52.010;5.546;2023-01-04T12:43:47;6.35;;;2.10;;
67140;SDS011;54058;52.010;5.546;2023-01-04T12:54:48;3.72;;;2.08;;
67140;SDS011;54058;52.010;5.546;2023-01-04T12:59:58;6.22;;;1.90;;
67140;SDS011;54058;52.010;5.546;2023-01-04T13:05:34;5.15;;;1.58;;
67140;SDS011;54058;52.010;5.546;2023-01-04T13:10:42;5.78;;;1.98;;
67140;SDS011;54058;52.010;5.546;2023-01-04T13:18:47;4.75;;;1.50;;
67140;SDS011;54058;52.010;5.546;2023-01-04T13:21:30;5.13;;;1.63;;
67140;SDS011;54058;52.010;5.546;2023-01-04T13:23:59;3.03;;;1.50;;
67140;SDS011;54058;52.010;5.546;2023-01-04T13:29:06;2.05;;;1.40;;
67140;SDS011;54058;52.010;5.546;2023-01-04T13:31:44;8.23;;;1.67;;
67140;SDS011;54058;52.010;5.546;2023-01-04T13:34:22;4.90;;;1.50;;
67140;SDS011;54058;52.010;5.546;2023-01-04T13:39:30;4.30;;;1.58;;
67140;SDS011;54058;52.010;5.546;2023-01-04T13:41:55;7.05;;;1.40;;
67140;SDS011;54058;52.010;5.546;2023-01-04T13:46:59;4.50;;;1.40;;
67140;SDS011;54058;52.010;5.546;2023-01-04T13:49:25;3.45;;;1.27;;
67140;SDS011;54058;52.010;5.546;2023-01-04T13:51:51;6.10;;;1.30;;
67140;SDS011;54058;52.010;5.546;2023-01-04T13:54:21;8.25;;;1.48;;
67140;SDS011;54058;52.010;5.546;2023-01-04T13:56:48;15.45;;;1.48;;
67140;SDS011;54058;52.010;5.546;2023-01-04T13:59:16;6.00;;;1.75;;
67140;SDS011;54058;52.010;5.546;2023-01-04T14:01:44;8.48;;;1.65;;
67140;SDS011;54058;52.010;5.546;2023-01-04T14:06:44;6.13;;;1.17;;
67140;SDS011;54058;52.010;5.546;2023-01-04T14:09:13;6.03;;;1.42;;
67140;SDS011;54058;52.010;5.546;2023-01-04T14:17:26;11.15;;;1.73;;
67140;SDS011;54058;52.010;5.546;2023-01-04T14:20:05;7.60;;;1.10;;
67140;SDS011;54058;52.010;5.546;2023-01-04T14:22:54;5.28;;;1.35;;
67140;SDS011;54058;52.010;5.546;2023-01-04T14:25:34;7.03;;;1.58;;
67140;SDS011;54058;52.010;5.546;2023-01-04T14:30:47;3.75;;;0.95;;
67140;SDS011;54058;52.010;5.546;2023-01-04T14:33:18;6.45;;;1.30;;
67140;SDS011;54058;52.010;5.546;2023-01-04T14:41:35;14.82;;;1.95;;
67140;SDS011;54058;52.010;5.546;2023-01-04T14:44:02;6.75;;;1.50;;
67140;SDS011;54058;52.010;5.546;2023-01-04T14:46:30;9.40;;;1.67;;
67140;SDS011;54058;52.010;5.546;2023-01-04T14:48:56;10.45;;;1.67;;
67140;SDS011;54058;52.010;5.546;2023-01-04T14:51:24;10.55;;;1.73;;
67140;SDS011;54058;52.010;5.546;2023-01-04T14:53:56;10.52;;;1.48;;
67140;SDS011;54058;52.010;5.546;2023-01-04T14:56:22;6.30;;;1.20;;
67140;SDS011;54058;52.010;5.546;2023-01-04T14:58:47;7.88;;;1.48;;
67140;SDS011;54058;52.010;5.546;2023-01-04T15:01:13;10.55;;;2.15;;
67140;SDS011;54058;52.010;5.546;2023-01-04T15:03:38;10.60;;;1.88;;
67140;SDS011;54058;52.010;5.546;2023-01-04T15:06:04;10.45;;;1.67;;
67140;SDS011;54058;52.010;5.546;2023-01-04T15:08:31;11.90;;;1.80;;
67140;SDS011;54058;52.010;5.546;2023-01-04T15:10:57;11.63;;;2.13;;
67140;SDS011;54058;52.010;5.546;2023-01-04T15:13:23;17.35;;;1.83;;
67140;SDS011;54058;52.010;5.546;2023-01-04T15:15:48;16.02;;;2.33;;
67140;SDS011;54058;52.010;5.546;2023-01-04T15:18:16;12.95;;;1.83;;
67140;SDS011;54058;52.010;5.546;2023-01-04T15:20:42;13.55;;;2.00;;
67140;SDS011;54058;52.010;5.546;2023-01-04T15:23:09;11.18;;;2.45;;
67140;SDS011;54058;52.010;5.546;2023-01-04T15:25:36;16.33;;;2.50;;
67140;SDS011;54058;52.010;5.546;2023-01-04T15:28:03;18.40;;;3.25;;
67140;SDS011;54058;52.010;5.546;2023-01-04T15:30:29;15.35;;;3.53;;
67140;SDS011;54058;52.010;5.546;2023-01-04T15:32:55;18.85;;;2.30;;
67140;SDS011;54058;52.010;5.546;2023-01-04T15:35:21;17.48;;;3.15;;
67140;SDS011;54058;52.010;5.546;2023-01-04T15:37:46;21.58;;;2.92;;
67140;SDS011;54058;52.010;5.546;2023-01-04T15:40:13;23.63;;;3.83;;
67140;SDS011;54058;52.010;5.546;2023-01-04T15:42:41;24.23;;;3.25;;
67140;SDS011;54058;52.010;5.546;2023-01-04T15:47:51;20.15;;;2.70;;
67140;SDS011;54058;52.010;5.546;2023-01-04T15:50:17;20.88;;;3.25;;
67140;SDS011;54058;52.010;5.546;2023-01-04T15:52:44;28.27;;;4.30;;
67140;SDS011;54058;52.010;5.546;2023-01-04T15:55:09;18.30;;;3.03;;
67140;SDS011;54058;52.010;5.546;2023-01-04T15:57:37;19.77;;;2.78;;
67140;SDS011;54058;52.010;5.546;2023-01-04T16:00:03;24.38;;;3.13;;
67140;SDS011;54058;52.010;5.546;2023-01-04T16:02:29;21.73;;;4.32;;
67140;SDS011;54058;52.010;5.546;2023-01-04T16:04:56;28.85;;;3.13;;
67140;SDS011;54058;52.010;5.546;2023-01-04T16:07:21;26.63;;;4.35;;
67140;SDS011;54058;52.010;5.546;2023-01-04T16:09:47;28.70;;;4.20;;
67140;SDS011;54058;52.010;5.546;2023-01-04T16:12:12;26.63;;;3.17;;
67140;SDS011;54058;52.010;5.546;2023-01-04T16:14:56;21.75;;;3.30;;
67140;SDS011;54058;52.010;5.546;2023-01-04T16:17:22;18.48;;;3.05;;
67140;SDS011;54058;52.010;5.546;2023-01-04T16:19:49;24.15;;;3.10;;
67140;SDS011;54058;52.010;5.546;2023-01-04T16:22:14;21.23;;;3.20;;
67140;SDS011;54058;52.010;5.546;2023-01-04T16:24:40;21.40;;;3.38;;
67140;SDS011;54058;52.010;5.546;2023-01-04T16:27:06;22.90;;;3.38;;
67140;SDS011;54058;52.010;5.546;2023-01-04T16:29:32;32.20;;;3.92;;
67140;SDS011;54058;52.010;5.546;2023-01-04T16:31:58;27.52;;;3.53;;
67140;SDS011;54058;52.010;5.546;2023-01-04T16:34:23;26.50;;;3.78;;
67140;SDS011;54058;52.010;5.546;2023-01-04T16:36:49;25.50;;;3.72;;
67140;SDS011;54058;52.010;5.546;2023-01-04T16:39:14;27.15;;;3.97;;
67140;SDS011;54058;52.010;5.546;2023-01-04T16:41:40;23.63;;;3.80;;
67140;SDS011;54058;52.010;5.546;2023-01-04T16:44:06;21.75;;;3.10;;
67140;SDS011;54058;52.010;5.546;2023-01-04T16:46:34;22.35;;;3.22;;
67140;SDS011;54058;52.010;5.546;2023-01-04T16:49:11;20.65;;;3.25;;
67140;SDS011;54058;52.010;5.546;2023-01-04T16:51:39;20.48;;;3.13;;
67140;SDS011;54058;52.010;5.546;2023-01-04T16:54:09;16.33;;;2.90;;
67140;SDS011;54058;52.010;5.546;2023-01-04T16:56:35;20.77;;;3.53;;
67140;SDS011;54058;52.010;5.546;2023-01-04T16:59:02;27.27;;;4.00;;
67140;SDS011;54058;52.010;5.546;2023-01-04T17:01:34;26.38;;;3.97;;
67140;SDS011;54058;52.010;5.546;2023-01-04T17:04:02;27.10;;;3.83;;
67140;SDS011;54058;52.010;5.546;2023-01-04T17:06:34;19.17;;;3.17;;